Deer Dancer — WDB6598 — position and weather

sailwx.info

Track history (hours):
 
Tides and Currents Weather Stations Pressure Air Temp Water Temp Dewpoint Dewpoint Depression Visibility Wind Speed Wind Dir Waves Ship Positions

Deer Dancer

Owner: Martha Houstoun Davis Trust, Cherry Hills Village, CO. More information available from US FCC via Universal Licensing System and Coast Guard Vessel Documentation Center.

Last reported at 2017-Nov-20 00:28 UTC. Time now 2017-Dec-12 23:49 UTC.
Position N 26°06' W 080°07'.
Warning: this ship's position is 22 days out of date.

Type: Sailing vessel. MMSI: 366927240.

Date/timePositionNaut miles runAvg speedWind from/ knotsBaromVisibWave heightAir tempDewpointWater temp
2017-Nov-20 00:28N 26°06' W 080°07'0 0.0
2017-Nov-19 23:58N 26°06' W 080°07'0 0.0
2017-Nov-19 23:19N 26°06' W 080°07'0 0.0
2017-Nov-19 22:49N 26°06' W 080°07'0 0.0
2017-Nov-19 22:19N 26°06' W 080°07'0 0.0
2017-Nov-19 21:52N 26°06' W 080°07'0 0.0
2017-Nov-19 21:22N 26°06' W 080°07'0 0.0
2017-Nov-19 20:52N 26°06' W 080°07'0 0.0
2017-Nov-19 20:07N 26°06' W 080°07'0 0.0
2017-Nov-19 19:52N 26°06' W 080°07'0 0.0
2017-Nov-19 19:22N 26°06' W 080°07'0 0.0
2017-Nov-19 18:55N 26°06' W 080°07'0 0.0
2017-Nov-19 18:25N 26°06' W 080°07'0 0.0
2017-Nov-19 17:55N 26°06' W 080°07'0 0.0
2017-Nov-19 17:25N 26°06' W 080°07'0 0.0
2017-Nov-19 16:52N 26°06' W 080°07'0 0.0
2017-Nov-19 16:28N 26°06' W 080°07'0 0.0
2017-Nov-19 15:58N 26°06' W 080°07'0 0.0
2017-Nov-19 15:28N 26°06' W 080°07'0 0.0
2017-Nov-19 14:58N 26°06' W 080°07'0 0.0
2017-Nov-19 14:25N 26°06' W 080°07'0 0.0
2017-Nov-19 13:58N 26°06' W 080°07'0 0.0
2017-Nov-19 13:28N 26°06' W 080°07'0 0.0
2017-Nov-19 12:58N 26°06' W 080°07'0 0.0
2017-Nov-19 12:28N 26°06' W 080°07'0 0.0
2017-Nov-19 11:58N 26°06' W 080°07'0 0.0
2017-Nov-19 11:28N 26°06' W 080°07'0 0.0
2017-Nov-19 10:58N 26°06' W 080°07'0 0.0
2017-Nov-19 10:28N 26°06' W 080°07'0 0.0
2017-Nov-19 09:58N 26°06' W 080°07'0 0.0
2017-Nov-19 09:19N 26°06' W 080°07'0 0.0
2017-Nov-19 08:49N 26°06' W 080°07'0 0.0
2017-Nov-19 08:22N 26°06' W 080°07'0 0.0
2017-Nov-19 07:49N 26°06' W 080°07'0 0.0
2017-Nov-19 07:22N 26°06' W 080°07'0 0.0
2017-Nov-19 06:52N 26°06' W 080°07'0 0.0
2017-Nov-19 06:19N 26°06' W 080°07'0 0.0
2017-Nov-19 05:52N 26°06' W 080°07'0 0.0
2017-Nov-19 05:25N 26°06' W 080°07'0 0.0
2017-Nov-19 04:55N 26°06' W 080°07'0 0.0
2017-Nov-19 04:10N 26°06' W 080°07'0 0.0
2017-Nov-19 03:55N 26°06' W 080°07'0 0.0
2017-Nov-19 03:25N 26°06' W 080°07'0 0.0
2017-Nov-19 02:55N 26°06' W 080°07'0 0.0
2017-Nov-19 02:28N 26°06' W 080°07'0 0.0
2017-Nov-19 01:58N 26°06' W 080°07'0 0.0
2017-Nov-19 01:28N 26°06' W 080°07'0 0.0
2017-Nov-19 00:58N 26°06' W 080°07'0 0.0
2017-Nov-19 00:28N 26°06' W 080°07'0 0.0
2017-Nov-18 23:58N 26°06' W 080°07'0 0.9
2017-Nov-18 23:28N 26°07' W 080°07'0 0.8
2017-Nov-18 22:55N 26°06' W 080°07'0 0.0
2017-Nov-18 22:28N 26°06' W 080°07'0 0.0
2017-Nov-18 21:43N 26°06' W 080°07'0 0.0
2017-Nov-18 21:13N 26°06' W 080°07'0 0.0
2017-Nov-18 20:49N 26°06' W 080°07'0 0.0
2017-Nov-18 20:28N 26°06' W 080°07'0 0.0
2017-Nov-18 19:58N 26°06' W 080°07'0 0.0
2017-Nov-18 19:19N 26°06' W 080°07'0 0.0
2017-Nov-18 18:49N 26°06' W 080°07'0 0.0
2017-Nov-18 18:22N 26°06' W 080°07'0 0.0
2017-Nov-18 17:46N 26°06' W 080°07'1 2.2
2017-Nov-18 17:28N 26°06' W 080°07'2 3.6
2017-Nov-18 16:55N 26°07' W 080°05'26 7.1
2017-Nov-18 13:15N 26°33' W 080°00'2 8.2
2017-Nov-18 13:00N 26°35' W 080°00'4 7.5
2017-Nov-18 12:30N 26°38' W 079°60'4 7.2
2017-Nov-18 12:00N 26°42' W 079°60'3 6.7
2017-Nov-18 11:29N 26°45' W 079°59'8 6.5
2017-Nov-18 10:19N 26°53' W 080°00'2 6.8
2017-Nov-18 10:00N 26°55' W 080°01'3 7.0
2017-Nov-18 09:30N 26°59' W 080°01'  
Track history (hours):
 
Tides and Currents Weather Stations Pressure Air Temp Water Temp Dewpoint Dewpoint Depression Visibility Wind Speed Wind Dir Waves Ship Positions

Deer Dancer

Owner: Martha Houstoun Davis Trust, Cherry Hills Village, CO. More information available from US FCC via Universal Licensing System and Coast Guard Vessel Documentation Center.

Last reported at 2017-Nov-20 00:28 UTC. Time now 2017-Dec-12 23:49 UTC.
Position N 26°06' W 080°07'.
Warning: this ship's position is 22 days out of date.

Type: Sailing vessel. MMSI: 366927240.

Date/timePositionNaut miles runAvg speedWind from/ knotsBaromVisibWave heightAir tempDewpointWater temp
2017-Nov-20 00:28N 26°06' W 080°07'0 0.0
2017-Nov-19 23:58N 26°06' W 080°07'0 0.0
2017-Nov-19 23:19N 26°06' W 080°07'0 0.0
2017-Nov-19 22:49N 26°06' W 080°07'0 0.0
2017-Nov-19 22:19N 26°06' W 080°07'0 0.0
2017-Nov-19 21:52N 26°06' W 080°07'0 0.0
2017-Nov-19 21:22N 26°06' W 080°07'0 0.0
2017-Nov-19 20:52N 26°06' W 080°07'0 0.0
2017-Nov-19 20:07N 26°06' W 080°07'0 0.0
2017-Nov-19 19:52N 26°06' W 080°07'0 0.0
2017-Nov-19 19:22N 26°06' W 080°07'0 0.0
2017-Nov-19 18:55N 26°06' W 080°07'0 0.0
2017-Nov-19 18:25N 26°06' W 080°07'0 0.0
2017-Nov-19 17:55N 26°06' W 080°07'0 0.0
2017-Nov-19 17:25N 26°06' W 080°07'0 0.0
2017-Nov-19 16:52N 26°06' W 080°07'0 0.0
2017-Nov-19 16:28N 26°06' W 080°07'0 0.0
2017-Nov-19 15:58N 26°06' W 080°07'0 0.0
2017-Nov-19 15:28N 26°06' W 080°07'0 0.0
2017-Nov-19 14:58N 26°06' W 080°07'0 0.0
2017-Nov-19 14:25N 26°06' W 080°07'0 0.0
2017-Nov-19 13:58N 26°06' W 080°07'0 0.0
2017-Nov-19 13:28N 26°06' W 080°07'0 0.0
2017-Nov-19 12:58N 26°06' W 080°07'0 0.0
2017-Nov-19 12:28N 26°06' W 080°07'0 0.0
2017-Nov-19 11:58N 26°06' W 080°07'0 0.0
2017-Nov-19 11:28N 26°06' W 080°07'0 0.0
2017-Nov-19 10:58N 26°06' W 080°07'0 0.0
2017-Nov-19 10:28N 26°06' W 080°07'0 0.0
2017-Nov-19 09:58N 26°06' W 080°07'0 0.0
2017-Nov-19 09:19N 26°06' W 080°07'0 0.0
2017-Nov-19 08:49N 26°06' W 080°07'0 0.0
2017-Nov-19 08:22N 26°06' W 080°07'0 0.0
2017-Nov-19 07:49N 26°06' W 080°07'0 0.0
2017-Nov-19 07:22N 26°06' W 080°07'0 0.0
2017-Nov-19 06:52N 26°06' W 080°07'0 0.0
2017-Nov-19 06:19N 26°06' W 080°07'0 0.0
2017-Nov-19 05:52N 26°06' W 080°07'0 0.0
2017-Nov-19 05:25N 26°06' W 080°07'0 0.0
2017-Nov-19 04:55N 26°06' W 080°07'0 0.0
2017-Nov-19 04:10N 26°06' W 080°07'0 0.0
2017-Nov-19 03:55N 26°06' W 080°07'0 0.0
2017-Nov-19 03:25N 26°06' W 080°07'0 0.0
2017-Nov-19 02:55N 26°06' W 080°07'0 0.0
2017-Nov-19 02:28N 26°06' W 080°07'0 0.0
2017-Nov-19 01:58N 26°06' W 080°07'0 0.0
2017-Nov-19 01:28N 26°06' W 080°07'0 0.0
2017-Nov-19 00:58N 26°06' W 080°07'0 0.0
2017-Nov-19 00:28N 26°06' W 080°07'0 0.0
2017-Nov-18 23:58N 26°06' W 080°07'0 0.9
2017-Nov-18 23:28N 26°07' W 080°07'0 0.8
2017-Nov-18 22:55N 26°06' W 080°07'0 0.0
2017-Nov-18 22:28N 26°06' W 080°07'0 0.0
2017-Nov-18 21:43N 26°06' W 080°07'0 0.0
2017-Nov-18 21:13N 26°06' W 080°07'0 0.0
2017-Nov-18 20:49N 26°06' W 080°07'0 0.0
2017-Nov-18 20:28N 26°06' W 080°07'0 0.0
2017-Nov-18 19:58N 26°06' W 080°07'0 0.0
2017-Nov-18 19:19N 26°06' W 080°07'0 0.0
2017-Nov-18 18:49N 26°06' W 080°07'0 0.0
2017-Nov-18 18:22N 26°06' W 080°07'0 0.0
2017-Nov-18 17:46N 26°06' W 080°07'1 2.2
2017-Nov-18 17:28N 26°06' W 080°07'2 3.6
2017-Nov-18 16:55N 26°07' W 080°05'26 7.1
2017-Nov-18 13:15N 26°33' W 080°00'2 8.2
2017-Nov-18 13:00N 26°35' W 080°00'4 7.5
2017-Nov-18 12:30N 26°38' W 079°60'4 7.2
2017-Nov-18 12:00N 26°42' W 079°60'3 6.7
2017-Nov-18 11:29N 26°45' W 079°59'8 6.5
2017-Nov-18 10:19N 26°53' W 080°00'2 6.8
2017-Nov-18 10:00N 26°55' W 080°01'3 7.0
2017-Nov-18 09:30N 26°59' W 080°01'  

Dump ship's entire track history